sensor_id;sensor_type;location;lat;lon;timestamp;P1;durP1;ratioP1;P2;durP2;ratioP2
76814;SDS011;65768;49.906;19.384;2023-11-21T00:00:06;6.70;;;4.20;;
76814;SDS011;65768;49.906;19.384;2023-11-21T00:03:19;7.30;;;4.00;;
76814;SDS011;65768;49.906;19.384;2023-11-21T00:05:48;7.40;;;2.50;;
76814;SDS011;65768;49.906;19.384;2023-11-21T00:08:17;7.90;;;3.70;;
76814;SDS011;65768;49.906;19.384;2023-11-21T00:10:48;5.10;;;3.70;;
76814;SDS011;65768;49.906;19.384;2023-11-21T00:13:17;6.80;;;2.80;;
76814;SDS011;65768;49.906;19.384;2023-11-21T00:15:45;5.50;;;3.10;;
76814;SDS011;65768;49.906;19.384;2023-11-21T00:18:14;9.20;;;4.70;;
76814;SDS011;65768;49.906;19.384;2023-11-21T00:20:42;10.30;;;5.10;;
76814;SDS011;65768;49.906;19.384;2023-11-21T00:23:10;5.70;;;3.90;;
76814;SDS011;65768;49.906;19.384;2023-11-21T00:25:39;10.30;;;3.80;;
76814;SDS011;65768;49.906;19.384;2023-11-21T00:28:08;6.60;;;3.90;;
76814;SDS011;65768;49.906;19.384;2023-11-21T00:30:36;5.80;;;3.40;;
76814;SDS011;65768;49.906;19.384;2023-11-21T00:33:05;6.90;;;3.70;;
76814;SDS011;65768;49.906;19.384;2023-11-21T00:35:33;11.30;;;4.80;;
76814;SDS011;65768;49.906;19.384;2023-11-21T00:38:02;5.90;;;4.10;;
76814;SDS011;65768;49.906;19.384;2023-11-21T00:40:31;7.20;;;4.00;;
76814;SDS011;65768;49.906;19.384;2023-11-21T00:42:59;9.90;;;5.30;;
76814;SDS011;65768;49.906;19.384;2023-11-21T00:45:27;8.60;;;5.80;;
76814;SDS011;65768;49.906;19.384;2023-11-21T00:47:55;7.00;;;3.90;;
76814;SDS011;65768;49.906;19.384;2023-11-21T00:50:24;5.80;;;3.60;;
76814;SDS011;65768;49.906;19.384;2023-11-21T00:52:52;11.00;;;4.20;;
76814;SDS011;65768;49.906;19.384;2023-11-21T00:55:20;4.00;;;2.10;;
76814;SDS011;65768;49.906;19.384;2023-11-21T00:57:49;7.00;;;3.80;;
76814;SDS011;65768;49.906;19.384;2023-11-21T01:00:18;4.50;;;2.90;;
76814;SDS011;65768;49.906;19.384;2023-11-21T01:02:46;5.70;;;2.90;;
76814;SDS011;65768;49.906;19.384;2023-11-21T01:05:16;7.90;;;3.70;;
76814;SDS011;65768;49.906;19.384;2023-11-21T01:07:44;6.70;;;3.60;;
76814;SDS011;65768;49.906;19.384;2023-11-21T01:10:13;8.20;;;3.90;;
76814;SDS011;65768;49.906;19.384;2023-11-21T01:12:42;7.10;;;3.80;;
76814;SDS011;65768;49.906;19.384;2023-11-21T01:15:13;6.40;;;4.00;;
76814;SDS011;65768;49.906;19.384;2023-11-21T01:17:41;7.90;;;4.10;;
76814;SDS011;65768;49.906;19.384;2023-11-21T01:20:12;8.50;;;3.60;;
76814;SDS011;65768;49.906;19.384;2023-11-21T01:22:44;6.70;;;4.00;;
76814;SDS011;65768;49.906;19.384;2023-11-21T01:25:12;3.50;;;2.30;;
76814;SDS011;65768;49.906;19.384;2023-11-21T01:27:42;7.20;;;3.50;;
76814;SDS011;65768;49.906;19.384;2023-11-21T01:30:12;5.80;;;3.30;;
76814;SDS011;65768;49.906;19.384;2023-11-21T01:32:40;5.70;;;3.10;;
76814;SDS011;65768;49.906;19.384;2023-11-21T01:35:09;4.50;;;3.00;;
76814;SDS011;65768;49.906;19.384;2023-11-21T01:37:38;6.50;;;2.70;;
76814;SDS011;65768;49.906;19.384;2023-11-21T01:40:08;6.90;;;3.50;;
76814;SDS011;65768;49.906;19.384;2023-11-21T01:42:38;5.40;;;2.90;;
76814;SDS011;65768;49.906;19.384;2023-11-21T01:45:09;5.20;;;3.20;;
76814;SDS011;65768;49.906;19.384;2023-11-21T01:47:40;6.50;;;3.10;;
76814;SDS011;65768;49.906;19.384;2023-11-21T01:50:14;7.50;;;3.70;;
76814;SDS011;65768;49.906;19.384;2023-11-21T01:52:45;6.90;;;2.80;;
76814;SDS011;65768;49.906;19.384;2023-11-21T01:55:17;6.00;;;2.60;;
76814;SDS011;65768;49.906;19.384;2023-11-21T01:57:46;6.30;;;2.80;;
76814;SDS011;65768;49.906;19.384;2023-11-21T02:00:17;7.30;;;3.50;;
76814;SDS011;65768;49.906;19.384;2023-11-21T02:02:48;6.00;;;3.20;;
76814;SDS011;65768;49.906;19.384;2023-11-21T02:05:18;5.70;;;3.30;;
76814;SDS011;65768;49.906;19.384;2023-11-21T02:07:49;6.90;;;3.10;;
76814;SDS011;65768;49.906;19.384;2023-11-21T02:10:20;5.20;;;2.70;;
76814;SDS011;65768;49.906;19.384;2023-11-21T02:12:52;6.70;;;3.60;;
76814;SDS011;65768;49.906;19.384;2023-11-21T02:15:20;5.40;;;3.10;;
76814;SDS011;65768;49.906;19.384;2023-11-21T02:17:50;4.80;;;2.30;;
76814;SDS011;65768;49.906;19.384;2023-11-21T02:20:22;5.80;;;3.10;;
76814;SDS011;65768;49.906;19.384;2023-11-21T02:22:56;4.80;;;3.00;;
76814;SDS011;65768;49.906;19.384;2023-11-21T02:25:29;5.90;;;3.20;;
76814;SDS011;65768;49.906;19.384;2023-11-21T02:28:01;5.60;;;3.20;;
76814;SDS011;65768;49.906;19.384;2023-11-21T02:30:32;4.50;;;3.20;;
76814;SDS011;65768;49.906;19.384;2023-11-21T02:33:01;7.10;;;3.00;;
76814;SDS011;65768;49.906;19.384;2023-11-21T02:35:30;5.00;;;2.90;;
76814;SDS011;65768;49.906;19.384;2023-11-21T02:37:58;6.00;;;3.20;;
76814;SDS011;65768;49.906;19.384;2023-11-21T02:40:27;5.90;;;2.70;;
76814;SDS011;65768;49.906;19.384;2023-11-21T02:42:56;5.50;;;3.00;;
76814;SDS011;65768;49.906;19.384;2023-11-21T02:45:28;7.20;;;3.40;;
76814;SDS011;65768;49.906;19.384;2023-11-21T02:47:57;4.60;;;3.00;;
76814;SDS011;65768;49.906;19.384;2023-11-21T02:50:26;9.40;;;4.20;;
76814;SDS011;65768;49.906;19.384;2023-11-21T02:52:55;9.50;;;5.10;;
76814;SDS011;65768;49.906;19.384;2023-11-21T02:55:28;7.60;;;3.60;;
76814;SDS011;65768;49.906;19.384;2023-11-21T02:57:57;7.20;;;3.80;;
76814;SDS011;65768;49.906;19.384;2023-11-21T03:00:44;6.70;;;3.80;;
76814;SDS011;65768;49.906;19.384;2023-11-21T03:03:15;6.60;;;4.30;;
76814;SDS011;65768;49.906;19.384;2023-11-21T03:05:46;8.30;;;3.50;;
76814;SDS011;65768;49.906;19.384;2023-11-21T03:08:15;9.20;;;3.90;;
76814;SDS011;65768;49.906;19.384;2023-11-21T03:10:43;6.70;;;3.40;;
76814;SDS011;65768;49.906;19.384;2023-11-21T03:13:11;8.80;;;3.90;;
76814;SDS011;65768;49.906;19.384;2023-11-21T03:15:39;6.50;;;3.40;;
76814;SDS011;65768;49.906;19.384;2023-11-21T03:18:09;5.60;;;3.10;;
76814;SDS011;65768;49.906;19.384;2023-11-21T03:20:37;4.60;;;2.70;;
76814;SDS011;65768;49.906;19.384;2023-11-21T03:23:05;8.00;;;4.40;;
76814;SDS011;65768;49.906;19.384;2023-11-21T03:25:34;11.80;;;9.60;;
76814;SDS011;65768;49.906;19.384;2023-11-21T03:28:02;9.00;;;4.50;;
76814;SDS011;65768;49.906;19.384;2023-11-21T03:30:31;7.70;;;3.70;;
76814;SDS011;65768;49.906;19.384;2023-11-21T03:32:59;6.20;;;3.00;;
76814;SDS011;65768;49.906;19.384;2023-11-21T03:35:28;7.00;;;3.00;;
76814;SDS011;65768;49.906;19.384;2023-11-21T03:37:56;10.10;;;4.10;;
76814;SDS011;65768;49.906;19.384;2023-11-21T03:40:25;5.50;;;2.50;;
76814;SDS011;65768;49.906;19.384;2023-11-21T03:42:53;6.10;;;3.10;;
76814;SDS011;65768;49.906;19.384;2023-11-21T03:45:21;6.20;;;3.00;;
76814;SDS011;65768;49.906;19.384;2023-11-21T03:47:49;8.60;;;3.80;;
76814;SDS011;65768;49.906;19.384;2023-11-21T03:50:18;6.30;;;5.20;;
76814;SDS011;65768;49.906;19.384;2023-11-21T03:52:46;7.90;;;4.10;;
76814;SDS011;65768;49.906;19.384;2023-11-21T03:55:14;5.80;;;3.00;;
76814;SDS011;65768;49.906;19.384;2023-11-21T03:57:43;8.20;;;3.40;;
76814;SDS011;65768;49.906;19.384;2023-11-21T04:00:11;11.30;;;3.90;;
76814;SDS011;65768;49.906;19.384;2023-11-21T04:02:41;8.60;;;3.90;;
76814;SDS011;65768;49.906;19.384;2023-11-21T04:05:11;5.60;;;3.10;;
76814;SDS011;65768;49.906;19.384;2023-11-21T04:07:41;7.70;;;3.20;;
76814;SDS011;65768;49.906;19.384;2023-11-21T04:10:09;8.00;;;3.70;;
76814;SDS011;65768;49.906;19.384;2023-11-21T04:12:41;7.30;;;3.60;;
76814;SDS011;65768;49.906;19.384;2023-11-21T04:15:09;6.80;;;3.00;;
76814;SDS011;65768;49.906;19.384;2023-11-21T04:17:38;8.60;;;3.10;;
76814;SDS011;65768;49.906;19.384;2023-11-21T04:20:07;5.70;;;3.00;;
76814;SDS011;65768;49.906;19.384;2023-11-21T04:22:41;6.30;;;2.50;;
76814;SDS011;65768;49.906;19.384;2023-11-21T04:25:13;6.70;;;3.40;;
76814;SDS011;65768;49.906;19.384;2023-11-21T04:27:43;6.20;;;3.30;;
76814;SDS011;65768;49.906;19.384;2023-11-21T04:30:13;6.40;;;3.70;;
76814;SDS011;65768;49.906;19.384;2023-11-21T04:32:42;4.80;;;2.90;;
76814;SDS011;65768;49.906;19.384;2023-11-21T04:35:11;3.60;;;2.60;;
76814;SDS011;65768;49.906;19.384;2023-11-21T04:37:40;5.80;;;3.40;;
76814;SDS011;65768;49.906;19.384;2023-11-21T04:40:08;6.30;;;3.10;;
76814;SDS011;65768;49.906;19.384;2023-11-21T04:42:37;5.10;;;3.00;;
76814;SDS011;65768;49.906;19.384;2023-11-21T04:45:05;6.70;;;3.00;;
76814;SDS011;65768;49.906;19.384;2023-11-21T04:47:40;6.70;;;3.50;;
76814;SDS011;65768;49.906;19.384;2023-11-21T04:50:10;6.40;;;3.30;;
76814;SDS011;65768;49.906;19.384;2023-11-21T04:52:38;5.90;;;3.30;;
76814;SDS011;65768;49.906;19.384;2023-11-21T04:55:07;6.60;;;2.90;;
76814;SDS011;65768;49.906;19.384;2023-11-21T04:57:58;3.10;;;2.10;;
76814;SDS011;65768;49.906;19.384;2023-11-21T05:00:26;8.00;;;3.10;;
76814;SDS011;65768;49.906;19.384;2023-11-21T05:02:55;8.40;;;5.30;;
76814;SDS011;65768;49.906;19.384;2023-11-21T05:05:23;7.10;;;4.00;;
76814;SDS011;65768;49.906;19.384;2023-11-21T05:07:51;4.80;;;2.90;;
76814;SDS011;65768;49.906;19.384;2023-11-21T05:10:21;5.50;;;2.40;;
76814;SDS011;65768;49.906;19.384;2023-11-21T05:12:51;7.70;;;3.20;;
76814;SDS011;65768;49.906;19.384;2023-11-21T05:15:19;4.20;;;2.20;;
76814;SDS011;65768;49.906;19.384;2023-11-21T05:17:49;3.40;;;1.80;;
76814;SDS011;65768;49.906;19.384;2023-11-21T05:20:20;3.70;;;2.10;;
76814;SDS011;65768;49.906;19.384;2023-11-21T05:22:50;7.10;;;2.80;;
76814;SDS011;65768;49.906;19.384;2023-11-21T05:25:19;6.20;;;2.90;;
76814;SDS011;65768;49.906;19.384;2023-11-21T05:27:47;5.70;;;3.80;;
76814;SDS011;65768;49.906;19.384;2023-11-21T05:30:18;3.60;;;2.70;;
76814;SDS011;65768;49.906;19.384;2023-11-21T05:32:48;6.20;;;2.60;;
76814;SDS011;65768;49.906;19.384;2023-11-21T05:35:18;5.60;;;3.00;;
76814;SDS011;65768;49.906;19.384;2023-11-21T05:37:47;6.90;;;4.40;;
76814;SDS011;65768;49.906;19.384;2023-11-21T05:40:15;7.80;;;4.90;;
76814;SDS011;65768;49.906;19.384;2023-11-21T05:42:44;7.10;;;4.00;;
76814;SDS011;65768;49.906;19.384;2023-11-21T05:45:14;7.70;;;5.30;;
76814;SDS011;65768;49.906;19.384;2023-11-21T05:47:45;9.10;;;5.00;;
76814;SDS011;65768;49.906;19.384;2023-11-21T05:50:15;12.90;;;10.80;;
76814;SDS011;65768;49.906;19.384;2023-11-21T05:52:44;16.70;;;8.60;;
76814;SDS011;65768;49.906;19.384;2023-11-21T05:55:14;9.70;;;4.50;;
76814;SDS011;65768;49.906;19.384;2023-11-21T05:57:45;8.90;;;4.20;;
76814;SDS011;65768;49.906;19.384;2023-11-21T06:00:14;7.70;;;4.00;;
76814;SDS011;65768;49.906;19.384;2023-11-21T06:02:50;5.80;;;3.30;;
76814;SDS011;65768;49.906;19.384;2023-11-21T06:05:22;6.00;;;2.80;;
76814;SDS011;65768;49.906;19.384;2023-11-21T06:07:55;7.50;;;3.70;;
76814;SDS011;65768;49.906;19.384;2023-11-21T06:10:27;8.90;;;3.60;;
76814;SDS011;65768;49.906;19.384;2023-11-21T06:12:56;11.50;;;6.40;;
76814;SDS011;65768;49.906;19.384;2023-11-21T06:15:25;11.00;;;7.80;;
76814;SDS011;65768;49.906;19.384;2023-11-21T06:17:54;8.70;;;6.30;;
76814;SDS011;65768;49.906;19.384;2023-11-21T06:20:22;8.40;;;3.60;;
76814;SDS011;65768;49.906;19.384;2023-11-21T06:22:50;7.40;;;3.80;;
76814;SDS011;65768;49.906;19.384;2023-11-21T06:25:21;14.60;;;7.20;;
76814;SDS011;65768;49.906;19.384;2023-11-21T06:27:50;13.00;;;6.30;;
76814;SDS011;65768;49.906;19.384;2023-11-21T06:30:20;8.10;;;5.60;;
76814;SDS011;65768;49.906;19.384;2023-11-21T06:32:52;11.50;;;4.50;;
76814;SDS011;65768;49.906;19.384;2023-11-21T06:35:21;10.80;;;5.70;;
76814;SDS011;65768;49.906;19.384;2023-11-21T06:37:50;10.50;;;5.60;;
76814;SDS011;65768;49.906;19.384;2023-11-21T06:40:19;13.40;;;8.80;;
76814;SDS011;65768;49.906;19.384;2023-11-21T06:42:48;12.90;;;7.60;;
76814;SDS011;65768;49.906;19.384;2023-11-21T06:45:18;16.80;;;9.70;;
76814;SDS011;65768;49.906;19.384;2023-11-21T06:47:47;23.40;;;13.00;;
76814;SDS011;65768;49.906;19.384;2023-11-21T06:50:17;25.80;;;13.10;;
76814;SDS011;65768;49.906;19.384;2023-11-21T06:52:46;15.90;;;9.30;;
76814;SDS011;65768;49.906;19.384;2023-11-21T06:55:16;24.70;;;11.20;;
76814;SDS011;65768;49.906;19.384;2023-11-21T06:57:44;12.30;;;6.00;;
76814;SDS011;65768;49.906;19.384;2023-11-21T07:00:13;13.30;;;7.20;;
76814;SDS011;65768;49.906;19.384;2023-11-21T07:02:46;11.20;;;5.70;;
76814;SDS011;65768;49.906;19.384;2023-11-21T07:05:15;9.50;;;4.50;;
76814;SDS011;65768;49.906;19.384;2023-11-21T07:07:49;21.40;;;10.40;;
76814;SDS011;65768;49.906;19.384;2023-11-21T07:10:18;18.70;;;9.10;;
76814;SDS011;65768;49.906;19.384;2023-11-21T07:12:47;9.00;;;4.70;;
76814;SDS011;65768;49.906;19.384;2023-11-21T07:15:16;10.00;;;5.30;;
76814;SDS011;65768;49.906;19.384;2023-11-21T07:17:45;8.40;;;4.80;;
76814;SDS011;65768;49.906;19.384;2023-11-21T07:20:14;10.50;;;4.90;;
76814;SDS011;65768;49.906;19.384;2023-11-21T07:22:46;8.60;;;5.10;;
76814;SDS011;65768;49.906;19.384;2023-11-21T07:25:15;14.60;;;7.10;;
76814;SDS011;65768;49.906;19.384;2023-11-21T07:27:44;13.90;;;5.20;;
76814;SDS011;65768;49.906;19.384;2023-11-21T07:30:14;12.20;;;5.30;;
76814;SDS011;65768;49.906;19.384;2023-11-21T07:32:42;10.50;;;5.30;;
76814;SDS011;65768;49.906;19.384;2023-11-21T07:35:10;9.50;;;4.80;;
76814;SDS011;65768;49.906;19.384;2023-11-21T07:37:40;9.40;;;5.10;;
76814;SDS011;65768;49.906;19.384;2023-11-21T07:40:09;8.60;;;5.10;;
76814;SDS011;65768;49.906;19.384;2023-11-21T07:42:40;8.70;;;4.60;;
76814;SDS011;65768;49.906;19.384;2023-11-21T07:45:12;8.50;;;5.20;;
76814;SDS011;65768;49.906;19.384;2023-11-21T07:47:40;8.50;;;4.10;;
76814;SDS011;65768;49.906;19.384;2023-11-21T07:50:09;10.80;;;4.20;;
76814;SDS011;65768;49.906;19.384;2023-11-21T07:52:38;6.10;;;3.70;;
76814;SDS011;65768;49.906;19.384;2023-11-21T07:55:06;8.60;;;4.00;;
76814;SDS011;65768;49.906;19.384;2023-11-21T07:57:35;8.40;;;3.90;;
76814;SDS011;65768;49.906;19.384;2023-11-21T08:00:06;8.50;;;4.20;;
76814;SDS011;65768;49.906;19.384;2023-11-21T08:02:41;6.60;;;3.60;;
76814;SDS011;65768;49.906;19.384;2023-11-21T08:05:14;6.10;;;3.80;;
76814;SDS011;65768;49.906;19.384;2023-11-21T08:07:44;8.30;;;4.10;;
76814;SDS011;65768;49.906;19.384;2023-11-21T08:10:12;9.40;;;3.90;;
76814;SDS011;65768;49.906;19.384;2023-11-21T08:12:40;6.30;;;3.70;;
76814;SDS011;65768;49.906;19.384;2023-11-21T08:15:10;7.70;;;3.90;;
76814;SDS011;65768;49.906;19.384;2023-11-21T08:17:39;10.10;;;4.20;;
76814;SDS011;65768;49.906;19.384;2023-11-21T08:20:07;10.00;;;5.10;;
76814;SDS011;65768;49.906;19.384;2023-11-21T08:22:38;12.60;;;4.50;;
76814;SDS011;65768;49.906;19.384;2023-11-21T08:25:09;11.50;;;4.60;;
76814;SDS011;65768;49.906;19.384;2023-11-21T08:27:38;7.70;;;4.10;;
76814;SDS011;65768;49.906;19.384;2023-11-21T08:30:07;9.50;;;4.30;;
76814;SDS011;65768;49.906;19.384;2023-11-21T08:32:36;7.50;;;4.90;;
76814;SDS011;65768;49.906;19.384;2023-11-21T08:35:04;7.50;;;4.20;;
76814;SDS011;65768;49.906;19.384;2023-11-21T08:37:34;7.80;;;5.00;;
76814;SDS011;65768;49.906;19.384;2023-11-21T08:40:05;10.80;;;5.10;;
76814;SDS011;65768;49.906;19.384;2023-11-21T08:42:39;9.60;;;5.10;;
76814;SDS011;65768;49.906;19.384;2023-11-21T08:45:07;12.50;;;4.90;;
76814;SDS011;65768;49.906;19.384;2023-11-21T08:47:36;9.70;;;4.50;;
76814;SDS011;65768;49.906;19.384;2023-11-21T08:50:06;10.50;;;5.00;;
76814;SDS011;65768;49.906;19.384;2023-11-21T08:52:36;8.50;;;4.60;;
76814;SDS011;65768;49.906;19.384;2023-11-21T08:55:05;17.80;;;6.50;;
76814;SDS011;65768;49.906;19.384;2023-11-21T08:57:37;12.00;;;5.20;;
76814;SDS011;65768;49.906;19.384;2023-11-21T09:00:08;8.50;;;4.60;;
76814;SDS011;65768;49.906;19.384;2023-11-21T09:02:40;11.40;;;5.30;;
76814;SDS011;65768;49.906;19.384;2023-11-21T09:05:11;10.30;;;5.40;;
76814;SDS011;65768;49.906;19.384;2023-11-21T09:07:42;7.60;;;5.00;;
76814;SDS011;65768;49.906;19.384;2023-11-21T09:10:11;8.80;;;4.30;;
76814;SDS011;65768;49.906;19.384;2023-11-21T09:12:42;8.30;;;4.30;;
76814;SDS011;65768;49.906;19.384;2023-11-21T09:15:11;10.20;;;5.40;;
76814;SDS011;65768;49.906;19.384;2023-11-21T09:17:40;11.50;;;5.00;;
76814;SDS011;65768;49.906;19.384;2023-11-21T09:20:09;10.90;;;4.10;;
76814;SDS011;65768;49.906;19.384;2023-11-21T09:22:43;10.90;;;4.30;;
76814;SDS011;65768;49.906;19.384;2023-11-21T09:25:13;6.40;;;3.10;;
76814;SDS011;65768;49.906;19.384;2023-11-21T09:27:41;9.00;;;3.30;;
76814;SDS011;65768;49.906;19.384;2023-11-21T09:30:10;7.90;;;3.80;;
76814;SDS011;65768;49.906;19.384;2023-11-21T09:32:39;9.60;;;4.30;;
76814;SDS011;65768;49.906;19.384;2023-11-21T09:35:09;6.80;;;4.20;;
76814;SDS011;65768;49.906;19.384;2023-11-21T09:37:38;7.80;;;3.70;;
76814;SDS011;65768;49.906;19.384;2023-11-21T09:40:06;9.10;;;3.40;;
76814;SDS011;65768;49.906;19.384;2023-11-21T09:42:54;7.40;;;3.90;;
76814;SDS011;65768;49.906;19.384;2023-11-21T09:45:28;5.50;;;3.20;;
76814;SDS011;65768;49.906;19.384;2023-11-21T09:48:02;6.10;;;2.50;;
76814;SDS011;65768;49.906;19.384;2023-11-21T09:50:32;4.50;;;1.90;;
76814;SDS011;65768;49.906;19.384;2023-11-21T09:55:45;5.10;;;2.80;;
76814;SDS011;65768;49.906;19.384;2023-11-21T09:58:16;6.30;;;2.70;;
76814;SDS011;65768;49.906;19.384;2023-11-21T10:00:47;6.90;;;3.20;;
76814;SDS011;65768;49.906;19.384;2023-11-21T10:03:17;7.60;;;3.10;;
76814;SDS011;65768;49.906;19.384;2023-11-21T10:05:46;5.90;;;2.30;;
76814;SDS011;65768;49.906;19.384;2023-11-21T10:10:49;9.60;;;3.60;;
76814;SDS011;65768;49.906;19.384;2023-11-21T10:13:21;6.90;;;3.00;;
76814;SDS011;65768;49.906;19.384;2023-11-21T10:15:50;4.90;;;2.90;;
76814;SDS011;65768;49.906;19.384;2023-11-21T10:18:21;7.20;;;2.90;;
76814;SDS011;65768;49.906;19.384;2023-11-21T10:23:23;5.70;;;3.00;;
76814;SDS011;65768;49.906;19.384;2023-11-21T10:25:53;6.70;;;2.70;;
76814;SDS011;65768;49.906;19.384;2023-11-21T10:28:23;5.20;;;2.90;;
76814;SDS011;65768;49.906;19.384;2023-11-21T10:30:51;9.40;;;3.50;;
76814;SDS011;65768;49.906;19.384;2023-11-21T10:33:26;16.30;;;7.90;;
76814;SDS011;65768;49.906;19.384;2023-11-21T10:35:57;10.40;;;5.40;;
76814;SDS011;65768;49.906;19.384;2023-11-21T10:38:31;7.10;;;3.40;;
76814;SDS011;65768;49.906;19.384;2023-11-21T10:41:11;8.60;;;4.30;;
76814;SDS011;65768;49.906;19.384;2023-11-21T10:43:43;8.20;;;4.10;;
76814;SDS011;65768;49.906;19.384;2023-11-21T10:46:14;5.90;;;3.20;;
76814;SDS011;65768;49.906;19.384;2023-11-21T10:48:42;7.70;;;3.70;;
76814;SDS011;65768;49.906;19.384;2023-11-21T10:51:12;9.00;;;5.30;;
76814;SDS011;65768;49.906;19.384;2023-11-21T10:53:41;5.30;;;3.10;;
76814;SDS011;65768;49.906;19.384;2023-11-21T10:56:14;5.20;;;2.60;;
76814;SDS011;65768;49.906;19.384;2023-11-21T10:58:50;5.90;;;3.10;;
76814;SDS011;65768;49.906;19.384;2023-11-21T11:01:19;8.20;;;3.80;;
76814;SDS011;65768;49.906;19.384;2023-11-21T11:03:52;6.40;;;3.20;;
76814;SDS011;65768;49.906;19.384;2023-11-21T11:06:23;6.70;;;3.20;;
76814;SDS011;65768;49.906;19.384;2023-11-21T11:08:54;7.00;;;3.80;;
76814;SDS011;65768;49.906;19.384;2023-11-21T11:11:25;6.10;;;3.40;;
76814;SDS011;65768;49.906;19.384;2023-11-21T11:13:53;6.10;;;3.70;;
76814;SDS011;65768;49.906;19.384;2023-11-21T11:16:23;8.90;;;4.20;;
76814;SDS011;65768;49.906;19.384;2023-11-21T11:18:54;6.70;;;3.60;;
76814;SDS011;65768;49.906;19.384;2023-11-21T11:24:13;9.50;;;4.40;;
76814;SDS011;65768;49.906;19.384;2023-11-21T11:29:46;10.60;;;5.00;;
76814;SDS011;65768;49.906;19.384;2023-11-21T11:35:13;9.80;;;4.90;;
76814;SDS011;65768;49.906;19.384;2023-11-21T11:38:06;8.70;;;4.30;;
76814;SDS011;65768;49.906;19.384;2023-11-21T11:40:44;9.20;;;5.30;;
76814;SDS011;65768;49.906;19.384;2023-11-21T11:43:22;9.50;;;4.90;;
76814;SDS011;65768;49.906;19.384;2023-11-21T11:45:55;10.50;;;4.60;;
76814;SDS011;65768;49.906;19.384;2023-11-21T11:48:25;9.20;;;4.10;;
76814;SDS011;65768;49.906;19.384;2023-11-21T11:51:04;11.10;;;4.60;;
76814;SDS011;65768;49.906;19.384;2023-11-21T11:53:41;9.70;;;4.50;;
76814;SDS011;65768;49.906;19.384;2023-11-21T11:56:21;9.20;;;4.80;;
76814;SDS011;65768;49.906;19.384;2023-11-21T11:59:00;8.30;;;4.40;;
76814;SDS011;65768;49.906;19.384;2023-11-21T12:01:36;8.30;;;4.30;;
76814;SDS011;65768;49.906;19.384;2023-11-21T12:06:45;9.20;;;4.60;;
76814;SDS011;65768;49.906;19.384;2023-11-21T12:09:17;14.30;;;5.20;;
76814;SDS011;65768;49.906;19.384;2023-11-21T12:11:50;13.50;;;6.00;;
76814;SDS011;65768;49.906;19.384;2023-11-21T12:14:18;10.30;;;4.40;;
76814;SDS011;65768;49.906;19.384;2023-11-21T12:16:47;6.90;;;3.40;;
76814;SDS011;65768;49.906;19.384;2023-11-21T12:19:16;11.40;;;3.80;;
76814;SDS011;65768;49.906;19.384;2023-11-21T12:21:44;8.40;;;3.50;;
76814;SDS011;65768;49.906;19.384;2023-11-21T12:24:13;7.20;;;3.90;;
76814;SDS011;65768;49.906;19.384;2023-11-21T12:26:44;7.60;;;3.70;;
76814;SDS011;65768;49.906;19.384;2023-11-21T12:29:13;8.30;;;4.50;;
76814;SDS011;65768;49.906;19.384;2023-11-21T12:31:42;6.80;;;3.00;;
76814;SDS011;65768;49.906;19.384;2023-11-21T12:34:11;8.30;;;4.10;;
76814;SDS011;65768;49.906;19.384;2023-11-21T12:36:42;7.30;;;3.50;;
76814;SDS011;65768;49.906;19.384;2023-11-21T12:39:10;11.10;;;5.40;;
76814;SDS011;65768;49.906;19.384;2023-11-21T12:41:39;13.00;;;6.60;;
76814;SDS011;65768;49.906;19.384;2023-11-21T12:44:09;8.50;;;4.90;;
76814;SDS011;65768;49.906;19.384;2023-11-21T12:46:41;9.40;;;4.30;;
76814;SDS011;65768;49.906;19.384;2023-11-21T12:49:14;7.80;;;4.00;;
76814;SDS011;65768;49.906;19.384;2023-11-21T12:51:45;10.30;;;6.20;;
76814;SDS011;65768;49.906;19.384;2023-11-21T12:54:15;11.10;;;5.40;;
76814;SDS011;65768;49.906;19.384;2023-11-21T12:56:46;11.70;;;5.60;;
76814;SDS011;65768;49.906;19.384;2023-11-21T12:59:16;8.20;;;4.50;;
76814;SDS011;65768;49.906;19.384;2023-11-21T13:01:48;8.20;;;3.60;;
76814;SDS011;65768;49.906;19.384;2023-11-21T13:04:19;8.70;;;3.80;;
76814;SDS011;65768;49.906;19.384;2023-11-21T13:06:48;8.60;;;3.50;;
76814;SDS011;65768;49.906;19.384;2023-11-21T13:09:17;8.10;;;3.70;;
76814;SDS011;65768;49.906;19.384;2023-11-21T13:11:49;8.40;;;4.50;;
76814;SDS011;65768;49.906;19.384;2023-11-21T13:14:18;10.00;;;4.50;;
76814;SDS011;65768;49.906;19.384;2023-11-21T13:16:47;9.00;;;4.20;;
76814;SDS011;65768;49.906;19.384;2023-11-21T13:19:16;8.70;;;5.10;;
76814;SDS011;65768;49.906;19.384;2023-11-21T13:21:45;7.50;;;3.80;;
76814;SDS011;65768;49.906;19.384;2023-11-21T13:24:14;8.40;;;4.10;;
76814;SDS011;65768;49.906;19.384;2023-11-21T13:26:48;9.70;;;5.20;;
76814;SDS011;65768;49.906;19.384;2023-11-21T13:29:17;8.90;;;4.70;;
76814;SDS011;65768;49.906;19.384;2023-11-21T13:31:46;11.20;;;4.40;;
76814;SDS011;65768;49.906;19.384;2023-11-21T13:36:50;7.60;;;4.70;;
76814;SDS011;65768;49.906;19.384;2023-11-21T13:39:26;8.50;;;4.40;;
76814;SDS011;65768;49.906;19.384;2023-11-21T13:41:56;7.80;;;4.20;;
76814;SDS011;65768;49.906;19.384;2023-11-21T13:44:25;8.90;;;5.10;;
76814;SDS011;65768;49.906;19.384;2023-11-21T13:47:04;8.60;;;4.30;;
76814;SDS011;65768;49.906;19.384;2023-11-21T13:49:34;9.20;;;4.20;;
76814;SDS011;65768;49.906;19.384;2023-11-21T13:52:09;10.70;;;5.40;;
76814;SDS011;65768;49.906;19.384;2023-11-21T13:54:43;17.40;;;7.50;;
76814;SDS011;65768;49.906;19.384;2023-11-21T13:57:12;11.10;;;5.20;;
76814;SDS011;65768;49.906;19.384;2023-11-21T13:59:42;13.80;;;4.80;;
76814;SDS011;65768;49.906;19.384;2023-11-21T14:02:12;13.60;;;6.00;;
76814;SDS011;65768;49.906;19.384;2023-11-21T14:04:56;9.70;;;4.20;;
76814;SDS011;65768;49.906;19.384;2023-11-21T14:07:29;8.70;;;3.70;;
76814;SDS011;65768;49.906;19.384;2023-11-21T14:10:03;12.80;;;5.70;;
76814;SDS011;65768;49.906;19.384;2023-11-21T14:12:42;7.40;;;3.00;;
76814;SDS011;65768;49.906;19.384;2023-11-21T14:15:11;5.60;;;2.70;;
76814;SDS011;65768;49.906;19.384;2023-11-21T14:17:45;5.80;;;3.30;;
76814;SDS011;65768;49.906;19.384;2023-11-21T14:20:14;7.60;;;3.10;;
76814;SDS011;65768;49.906;19.384;2023-11-21T14:22:44;8.50;;;3.70;;
76814;SDS011;65768;49.906;19.384;2023-11-21T14:25:15;7.80;;;3.90;;
76814;SDS011;65768;49.906;19.384;2023-11-21T14:27:45;8.60;;;4.30;;
76814;SDS011;65768;49.906;19.384;2023-11-21T14:30:16;5.80;;;3.90;;
76814;SDS011;65768;49.906;19.384;2023-11-21T14:32:47;10.60;;;4.20;;
76814;SDS011;65768;49.906;19.384;2023-11-21T14:35:16;7.50;;;2.80;;
76814;SDS011;65768;49.906;19.384;2023-11-21T14:37:46;7.20;;;3.20;;
76814;SDS011;65768;49.906;19.384;2023-11-21T14:40:14;11.60;;;6.70;;
76814;SDS011;65768;49.906;19.384;2023-11-21T14:42:50;13.70;;;8.10;;
76814;SDS011;65768;49.906;19.384;2023-11-21T14:45:23;12.50;;;7.20;;
76814;SDS011;65768;49.906;19.384;2023-11-21T14:47:54;15.80;;;9.20;;
76814;SDS011;65768;49.906;19.384;2023-11-21T14:50:55;15.40;;;9.80;;
76814;SDS011;65768;49.906;19.384;2023-11-21T14:53:30;15.80;;;7.90;;
76814;SDS011;65768;49.906;19.384;2023-11-21T14:56:23;16.40;;;7.50;;
76814;SDS011;65768;49.906;19.384;2023-11-21T14:59:03;11.50;;;5.50;;
76814;SDS011;65768;49.906;19.384;2023-11-21T15:01:41;17.30;;;9.30;;
76814;SDS011;65768;49.906;19.384;2023-11-21T15:04:24;15.90;;;7.40;;
76814;SDS011;65768;49.906;19.384;2023-11-21T15:07:04;19.90;;;11.20;;
76814;SDS011;65768;49.906;19.384;2023-11-21T15:09:35;21.80;;;11.20;;
76814;SDS011;65768;49.906;19.384;2023-11-21T15:12:10;19.60;;;8.20;;